createdAt,value
2019-01-13T00:02:24.119Z,2.53
2019-01-13T00:07:28.490Z,3.20
2019-01-13T00:12:35.669Z,2.17
2019-01-13T00:17:38.997Z,2.53
2019-01-13T00:22:43.366Z,2.60
2019-01-13T00:27:47.745Z,2.35
2019-01-13T00:32:52.119Z,3.70
2019-01-13T00:37:56.502Z,2.03
2019-01-13T00:43:00.844Z,3.30
2019-01-13T00:48:05.555Z,2.33
2019-01-13T00:53:09.939Z,2.50
2019-01-13T00:58:14.254Z,1.87
2019-01-13T01:03:18.697Z,1.90
2019-01-13T01:08:23.374Z,1.80
2019-01-13T01:13:27.768Z,2.23
2019-01-13T01:18:32.101Z,1.70
2019-01-13T01:23:36.473Z,2.53
2019-01-13T01:28:40.817Z,2.47
2019-01-13T01:33:45.254Z,4.17
2019-01-13T01:38:49.699Z,2.07
2019-01-13T01:43:54.043Z,2.20
2019-01-13T01:48:59.479Z,4.35
2019-01-13T01:54:03.837Z,2.33
2019-01-13T01:59:08.167Z,2.80
2019-01-13T02:04:12.602Z,2.83
2019-01-13T02:09:16.972Z,3.43
2019-01-13T02:14:21.343Z,4.70
2019-01-13T02:19:25.675Z,2.93
2019-01-13T02:24:30.036Z,2.60
2019-01-13T02:29:34.365Z,1.83
2019-01-13T02:34:38.706Z,2.30
2019-01-13T02:39:43.080Z,2.40
2019-01-13T02:44:47.406Z,2.27
2019-01-13T02:49:51.823Z,2.50
2019-01-13T02:54:56.206Z,1.97
2019-01-13T03:00:00.570Z,2.37
2019-01-13T03:05:07.667Z,2.03
2019-01-13T03:10:17.844Z,3.30
2019-01-13T03:15:23.504Z,2.07
2019-01-13T03:20:27.858Z,2.10
2019-01-13T03:25:32.243Z,2.65
2019-01-13T03:30:36.617Z,3.70
2019-01-13T03:35:40.985Z,2.63
2019-01-13T03:40:45.412Z,3.23
2019-01-13T03:45:49.812Z,1.93
2019-01-13T03:50:54.214Z,2.13
2019-01-13T03:55:58.557Z,3.13
2019-01-13T04:01:03.038Z,2.27
2019-01-13T04:06:07.405Z,2.53
2019-01-13T04:11:11.758Z,3.73
2019-01-13T04:16:16.123Z,2.30
2019-01-13T04:21:20.459Z,1.70
2019-01-13T04:26:24.830Z,3.97
2019-01-13T04:31:29.187Z,4.13
2019-01-13T04:36:33.531Z,3.12
2019-01-13T04:41:37.888Z,1.83
2019-01-13T04:46:42.230Z,2.23
2019-01-13T04:51:46.604Z,2.50
2019-01-13T04:56:50.974Z,2.83
2019-01-13T05:01:55.310Z,2.60
2019-01-13T05:06:59.745Z,2.50
2019-01-13T05:12:04.170Z,1.67
2019-01-13T05:17:08.634Z,1.53
2019-01-13T05:22:13.027Z,3.63
2019-01-13T05:27:17.401Z,3.57
2019-01-13T05:32:21.720Z,1.43
2019-01-13T05:37:26.075Z,2.50
2019-01-13T05:42:30.441Z,1.73
2019-01-13T05:47:34.872Z,2.23
2019-01-13T05:52:39.894Z,3.00
2019-01-13T05:57:44.396Z,1.53
2019-01-13T06:02:48.730Z,3.47
2019-01-13T06:07:53.078Z,2.20
2019-01-13T06:12:58.041Z,2.57
2019-01-13T06:18:02.411Z,2.47
2019-01-13T06:23:06.941Z,1.70
2019-01-13T06:28:11.286Z,1.77
2019-01-13T06:33:15.630Z,2.33
2019-01-13T06:38:19.971Z,2.33
2019-01-13T06:43:24.313Z,3.40
2019-01-13T06:48:28.667Z,2.43
2019-01-13T06:53:33.006Z,2.40
2019-01-13T06:58:37.492Z,1.70
2019-01-13T07:03:41.830Z,6.13
2019-01-13T07:08:46.166Z,3.87
2019-01-13T07:13:50.528Z,2.20
2019-01-13T07:18:54.876Z,2.73
2019-01-13T07:23:59.244Z,2.33
2019-01-13T07:29:03.601Z,3.43
2019-01-13T07:34:07.973Z,2.27
2019-01-13T07:39:12.297Z,2.73
2019-01-13T07:44:17.588Z,3.83
2019-01-13T07:49:22.089Z,2.40
2019-01-13T07:54:26.448Z,1.87
2019-01-13T07:59:30.781Z,2.93
2019-01-13T08:04:35.214Z,3.17
2019-01-13T08:09:39.583Z,3.30
2019-01-13T08:14:43.930Z,3.70
2019-01-13T08:19:48.298Z,4.13
2019-01-13T08:24:52.694Z,1.87
2019-01-13T08:29:57.053Z,3.03
2019-01-13T08:35:01.423Z,2.13
2019-01-13T08:40:09.000Z,3.30
2019-01-13T08:45:13.677Z,2.77
2019-01-13T08:50:21.600Z,4.13
2019-01-13T08:55:26.291Z,3.27
2019-01-13T09:00:31.396Z,2.53
2019-01-13T09:05:35.851Z,3.03
2019-01-13T09:10:40.262Z,3.10
2019-01-13T09:15:44.711Z,2.00
2019-01-13T09:20:49.077Z,1.83
2019-01-13T09:25:53.450Z,2.40
2019-01-13T09:30:57.804Z,1.70
2019-01-13T09:36:02.181Z,2.17
2019-01-13T09:41:06.679Z,1.60
2019-01-13T09:46:11.117Z,2.03
2019-01-13T09:51:15.462Z,1.93
2019-01-13T09:56:20.950Z,1.87
2019-01-13T10:01:25.376Z,2.17
2019-01-13T10:06:29.691Z,3.37
2019-01-13T10:11:34.046Z,3.33
2019-01-13T10:16:38.394Z,2.47
2019-01-13T10:21:42.882Z,2.97
2019-01-13T10:26:47.378Z,2.27
2019-01-13T10:31:51.795Z,3.00
2019-01-13T10:36:56.151Z,2.73
2019-01-13T10:42:00.514Z,2.63
2019-01-13T10:47:04.915Z,2.87
2019-01-13T10:52:09.394Z,2.20
2019-01-13T10:57:13.837Z,4.90
2019-01-13T11:02:18.233Z,2.33
2019-01-13T11:07:22.575Z,2.50
2019-01-13T11:12:26.983Z,1.93
2019-01-13T11:17:31.330Z,2.20
2019-01-13T11:22:35.836Z,2.67
2019-01-13T11:27:40.193Z,2.10
2019-01-13T11:32:44.642Z,1.90
2019-01-13T11:37:49.212Z,2.43
2019-01-13T11:42:53.551Z,2.20
2019-01-13T11:47:57.926Z,2.63
2019-01-13T11:53:02.294Z,2.03
2019-01-13T11:58:06.696Z,2.27
2019-01-13T12:03:16.713Z,1.70
2019-01-13T12:08:17.520Z,1.57
2019-01-13T12:13:21.897Z,1.37
2019-01-13T12:18:26.231Z,1.33
2019-01-13T12:23:30.570Z,1.30
2019-01-13T12:28:34.954Z,1.40
2019-01-13T12:33:39.362Z,0.90
2019-01-13T12:38:43.774Z,2.45
2019-01-13T12:43:49.224Z,1.20
2019-01-13T12:48:53.756Z,1.50
2019-01-13T12:53:58.268Z,1.20
2019-01-13T12:59:02.636Z,0.70
2019-01-13T13:04:07.043Z,1.20
2019-01-13T13:09:11.389Z,0.83
2019-01-13T13:14:16.745Z,0.83
2019-01-13T13:19:21.109Z,0.70
2019-01-13T13:24:25.450Z,0.80
2019-01-13T13:29:29.824Z,1.77
2019-01-13T13:34:34.164Z,0.60
2019-01-13T13:39:38.616Z,0.80
2019-01-13T13:44:43.054Z,0.73
2019-01-13T13:49:47.445Z,0.63
2019-01-13T13:54:52.602Z,0.70
2019-01-13T13:59:57.840Z,0.70
2019-01-13T14:05:02.272Z,0.80
2019-01-13T14:10:27.810Z,1.07
2019-01-13T14:15:32.178Z,0.97
2019-01-13T14:20:36.478Z,0.77
2019-01-13T14:25:40.852Z,0.70
2019-01-13T14:30:45.292Z,0.70
2019-01-13T14:35:49.693Z,1.70
2019-01-13T14:40:54.046Z,0.70
2019-01-13T14:45:58.416Z,0.80
2019-01-13T14:51:02.822Z,1.00
2019-01-13T14:56:07.161Z,1.70
2019-01-13T15:01:11.495Z,0.93
2019-01-13T15:06:15.890Z,1.03
2019-01-13T15:11:20.207Z,0.70
2019-01-13T15:16:24.553Z,0.83
2019-01-13T15:21:28.936Z,0.80
2019-01-13T15:26:33.543Z,1.10
2019-01-13T15:31:37.925Z,0.97
2019-01-13T15:36:42.309Z,1.13
2019-01-13T15:41:46.899Z,1.00
2019-01-13T15:46:51.266Z,0.80
2019-01-13T15:51:55.669Z,1.00
2019-01-13T15:57:00.005Z,0.93
2019-01-13T16:02:04.345Z,1.20
2019-01-13T16:07:08.689Z,0.90
2019-01-13T16:12:13.047Z,1.10
2019-01-13T16:17:17.427Z,1.20
2019-01-13T16:22:21.855Z,2.70
2019-01-13T16:27:26.259Z,1.63
2019-01-13T16:32:30.659Z,1.13
2019-01-13T16:37:35.070Z,1.00
2019-01-13T16:42:39.459Z,1.20
2019-01-13T16:47:43.802Z,1.33
2019-01-13T16:52:50.781Z,1.33
2019-01-13T16:57:55.193Z,1.13
2019-01-13T17:02:59.746Z,1.20
2019-01-13T17:08:04.575Z,1.27
2019-01-13T17:13:08.960Z,1.30
2019-01-13T17:18:13.405Z,1.20
2019-01-13T17:23:17.772Z,0.93
2019-01-13T17:28:22.177Z,1.10
2019-01-13T17:33:26.795Z,1.33
2019-01-13T17:38:31.582Z,1.80
2019-01-13T17:43:36.848Z,1.10
2019-01-13T17:48:42.703Z,1.30
2019-01-13T17:53:47.727Z,1.33
2019-01-13T17:58:53.749Z,0.97
2019-01-13T18:03:58.225Z,1.20
2019-01-13T18:09:04.237Z,1.30
2019-01-13T18:14:08.980Z,1.17
2019-01-13T18:19:13.428Z,0.97
2019-01-13T18:24:17.783Z,1.50
2019-01-13T18:29:22.202Z,1.33
2019-01-13T18:34:26.617Z,1.20
2019-01-13T18:39:30.988Z,1.40
2019-01-13T18:44:35.373Z,1.33
2019-01-13T18:49:39.767Z,1.17
2019-01-13T18:54:44.108Z,2.00
2019-01-13T18:59:48.436Z,1.20
2019-01-13T19:04:57.262Z,1.10
2019-01-13T19:09:58.949Z,1.27
2019-01-13T19:15:05.123Z,1.30
2019-01-13T19:20:12.232Z,1.40
2019-01-13T19:25:18.004Z,1.20
2019-01-13T19:30:22.390Z,1.40
2019-01-13T19:35:26.822Z,1.40
2019-01-13T19:40:31.342Z,1.53
2019-01-13T19:45:35.769Z,1.63
2019-01-13T19:50:40.199Z,1.30
2019-01-13T19:55:44.610Z,1.40
2019-01-13T20:00:49.139Z,1.30
2019-01-13T20:05:53.795Z,2.60
2019-01-13T20:10:58.201Z,0.80
2019-01-13T20:16:02.662Z,1.27
2019-01-13T20:21:07.073Z,6.73
2019-01-13T20:26:11.448Z,1.53
2019-01-13T20:31:15.806Z,2.73
2019-01-13T20:36:20.283Z,2.90
2019-01-13T20:41:24.792Z,2.23
2019-01-13T20:46:29.195Z,2.47
2019-01-13T20:51:33.556Z,2.53
2019-01-13T20:56:37.966Z,4.63
2019-01-13T21:01:42.316Z,6.37
2019-01-13T21:06:46.768Z,4.58
2019-01-13T21:11:51.626Z,2.87
2019-01-13T21:16:56.016Z,4.33
2019-01-13T21:22:00.429Z,4.67
2019-01-13T21:27:04.953Z,6.10
2019-01-13T21:32:09.311Z,3.43
2019-01-13T21:37:13.681Z,8.93
2019-01-13T21:42:18.193Z,7.40
2019-01-13T21:47:22.584Z,4.83
2019-01-13T21:52:26.912Z,4.93
2019-01-13T21:57:31.316Z,3.13
2019-01-13T22:02:36.788Z,2.87
2019-01-13T22:07:42.886Z,5.00
2019-01-13T22:12:47.252Z,7.50
2019-01-13T22:17:51.861Z,5.00
2019-01-13T22:22:56.212Z,6.13
2019-01-13T22:28:00.590Z,4.43
2019-01-13T22:33:05.083Z,3.50
2019-01-13T22:38:10.429Z,5.50
2019-01-13T22:43:15.072Z,5.33
2019-01-13T22:48:19.517Z,3.87
2019-01-13T22:53:23.930Z,3.67
2019-01-13T22:58:28.295Z,6.13
2019-01-13T23:03:32.667Z,3.77
2019-01-13T23:08:37.064Z,3.63
2019-01-13T23:13:42.218Z,5.47
2019-01-13T23:18:46.584Z,3.77
2019-01-13T23:23:50.919Z,4.50
2019-01-13T23:28:55.333Z,3.67
2019-01-13T23:33:59.722Z,4.93
2019-01-13T23:39:07.513Z,3.20
2019-01-13T23:44:11.974Z,2.50
2019-01-13T23:49:16.461Z,4.13
2019-01-13T23:54:20.848Z,5.03
2019-01-13T23:59:25.144Z,4.30
